createdAt,value
2023-05-22T00:00:36.582Z,6.70
2023-05-22T00:03:25.344Z,7.00
2023-05-22T00:06:24.157Z,7.00
2023-05-22T00:09:23.431Z,6.90
2023-05-22T00:12:30.717Z,7.00
2023-05-22T00:18:06.614Z,7.00
2023-05-22T00:20:45.637Z,7.10
2023-05-22T00:23:30.252Z,7.10
2023-05-22T00:26:05.318Z,6.70
2023-05-22T00:28:40.272Z,6.70
2023-05-22T00:31:14.948Z,6.50
2023-05-22T00:33:46.433Z,6.40
2023-05-22T00:36:36.392Z,6.60
2023-05-22T00:39:25.897Z,6.50
2023-05-22T00:42:12.150Z,6.50
2023-05-22T00:44:43.704Z,7.70
2023-05-22T00:47:17.912Z,7.80
2023-05-22T00:49:46.868Z,7.40
2023-05-22T00:52:17.470Z,7.10
2023-05-22T00:54:50.609Z,7.00
2023-05-22T00:57:25.820Z,6.70
2023-05-22T00:59:54.122Z,7.80
2023-05-22T01:02:23.636Z,7.10
2023-05-22T01:04:55.766Z,7.00
2023-05-22T01:07:26.066Z,7.10
2023-05-22T01:09:56.426Z,8.00
2023-05-22T01:12:29.253Z,7.90
2023-05-22T01:15:32.813Z,6.80
2023-05-22T01:18:18.172Z,7.60
2023-05-22T01:21:08.418Z,7.10
2023-05-22T01:24:19.983Z,7.90
2023-05-22T01:27:44.613Z,7.00
2023-05-22T01:30:37.121Z,7.00
2023-05-22T01:33:08.625Z,6.90
2023-05-22T01:35:39.798Z,7.60
2023-05-22T01:38:11.128Z,7.90
2023-05-22T01:40:43.615Z,8.70
2023-05-22T01:43:17.970Z,7.50
2023-05-22T01:45:54.134Z,7.40
2023-05-22T01:48:31.292Z,7.80
2023-05-22T01:51:17.062Z,9.10
2023-05-22T01:53:57.853Z,9.10
2023-05-22T01:56:37.103Z,9.20
2023-05-22T01:59:37.540Z,9.50
2023-05-22T02:02:13.152Z,8.40
2023-05-22T02:04:46.290Z,8.30
2023-05-22T02:07:19.940Z,8.50
2023-05-22T02:09:51.056Z,8.60
2023-05-22T02:12:27.130Z,8.80
2023-05-22T02:14:57.221Z,9.20
2023-05-22T02:17:26.321Z,9.00
2023-05-22T02:19:59.495Z,8.70
2023-05-22T02:22:27.676Z,8.90
2023-05-22T02:24:56.282Z,9.10
2023-05-22T02:27:24.560Z,8.90
2023-05-22T02:29:53.127Z,9.40
2023-05-22T02:32:21.477Z,8.80
2023-05-22T02:34:54.665Z,8.70
2023-05-22T02:37:48.286Z,8.70
2023-05-22T02:40:16.482Z,8.80
2023-05-22T02:42:44.884Z,9.30
2023-05-22T02:45:13.684Z,8.50
2023-05-22T02:47:43.311Z,9.10
2023-05-22T02:50:11.650Z,9.40
2023-05-22T02:52:43.145Z,9.10
2023-05-22T02:55:11.780Z,9.70
2023-05-22T02:57:41.275Z,9.20
2023-05-22T03:00:14.822Z,9.10
2023-05-22T03:02:43.273Z,9.20
2023-05-22T03:05:11.728Z,9.70
2023-05-22T03:07:44.034Z,9.90
2023-05-22T03:10:16.283Z,9.30
2023-05-22T03:12:44.700Z,8.60
2023-05-22T03:15:17.584Z,10.00
2023-05-22T03:17:46.224Z,8.90
2023-05-22T03:20:18.709Z,9.60
2023-05-22T03:22:47.043Z,9.00
2023-05-22T03:25:19.880Z,9.50
2023-05-22T03:27:48.107Z,9.50
2023-05-22T03:30:18.504Z,8.90
2023-05-22T03:32:59.146Z,9.10
2023-05-22T03:35:36.786Z,8.10
2023-05-22T03:38:14.183Z,8.10
2023-05-22T03:40:46.935Z,9.00
2023-05-22T03:43:19.842Z,8.60
2023-05-22T03:45:48.295Z,8.10
2023-05-22T03:48:16.780Z,8.90
2023-05-22T03:50:46.214Z,8.40
2023-05-22T03:53:17.210Z,8.10
2023-05-22T03:55:45.728Z,7.90
2023-05-22T03:58:13.998Z,7.60
2023-05-22T04:00:42.646Z,7.70
2023-05-22T04:03:13.616Z,7.00
2023-05-22T04:05:42.080Z,6.70
2023-05-22T04:08:11.944Z,7.10
2023-05-22T04:10:40.631Z,6.20
2023-05-22T04:13:09.218Z,6.20
2023-05-22T04:15:37.734Z,5.90
2023-05-22T04:18:06.291Z,5.20
2023-05-22T04:20:34.949Z,5.60
2023-05-22T04:23:04.575Z,5.80
2023-05-22T04:25:36.281Z,5.50
2023-05-22T04:28:04.783Z,5.60
2023-05-22T04:30:38.030Z,6.00
2023-05-22T04:33:06.882Z,5.00
2023-05-22T04:35:38.351Z,5.70
2023-05-22T04:38:09.055Z,5.70
2023-05-22T04:40:40.332Z,5.50
2023-05-22T04:43:14.300Z,5.20
2023-05-22T04:45:45.421Z,5.30
2023-05-22T04:48:14.080Z,5.00
2023-05-22T04:50:46.542Z,5.10
2023-05-22T04:53:15.634Z,5.50
2023-05-22T04:55:44.736Z,5.70
2023-05-22T04:58:13.120Z,6.40
2023-05-22T05:00:43.777Z,5.50
2023-05-22T05:03:17.277Z,5.70
2023-05-22T05:05:46.042Z,5.30
2023-05-22T05:08:17.491Z,4.60
2023-05-22T05:10:49.329Z,4.70
2023-05-22T05:13:18.999Z,5.10
2023-05-22T05:15:49.749Z,5.10
2023-05-22T05:18:21.724Z,5.10
2023-05-22T05:21:01.556Z,5.00
2023-05-22T05:23:32.984Z,4.50
2023-05-22T05:26:01.595Z,4.30
2023-05-22T05:28:33.143Z,4.50
2023-05-22T05:31:22.966Z,4.00
2023-05-22T05:34:22.523Z,4.90
2023-05-22T05:37:05.843Z,4.10
2023-05-22T05:39:35.839Z,3.90
2023-05-22T05:42:06.605Z,4.20
2023-05-22T05:44:38.883Z,4.30
2023-05-22T05:47:09.716Z,3.80
2023-05-22T05:49:38.141Z,4.00
2023-05-22T05:52:10.075Z,3.90
2023-05-22T05:54:38.280Z,4.60
2023-05-22T05:57:14.709Z,4.10
2023-05-22T05:59:46.104Z,4.20
2023-05-22T06:02:50.693Z,4.20
2023-05-22T06:05:45.995Z,4.30
2023-05-22T06:08:46.799Z,5.00
2023-05-22T06:11:15.182Z,4.20
2023-05-22T06:13:52.363Z,4.40
2023-05-22T06:16:20.897Z,4.30
2023-05-22T06:18:49.757Z,5.90
2023-05-22T06:21:21.502Z,4.60
2023-05-22T06:23:54.956Z,7.60
2023-05-22T06:26:26.076Z,4.40
2023-05-22T06:28:54.675Z,4.60
2023-05-22T06:31:25.345Z,4.00
2023-05-22T06:34:36.297Z,4.40
2023-05-22T06:37:27.692Z,5.40
2023-05-22T06:39:58.118Z,4.20
2023-05-22T06:42:57.346Z,7.40
2023-05-22T06:46:00.052Z,7.80
2023-05-22T06:49:14.701Z,3.50
2023-05-22T06:52:31.089Z,3.70
2023-05-22T06:55:05.882Z,4.50
2023-05-22T06:58:22.407Z,3.60
2023-05-22T07:01:37.459Z,3.90
2023-05-22T07:07:12.636Z,4.10
2023-05-22T07:09:41.507Z,7.20
2023-05-22T07:12:10.021Z,4.60
2023-05-22T07:14:38.397Z,4.40
2023-05-22T07:17:10.139Z,3.80
2023-05-22T07:19:47.683Z,5.00
2023-05-22T07:22:18.019Z,4.40
2023-05-22T07:24:47.569Z,4.00
2023-05-22T07:27:19.377Z,4.10
2023-05-22T07:29:48.924Z,5.70
2023-05-22T07:32:17.594Z,3.90
2023-05-22T07:34:49.397Z,4.00
2023-05-22T07:37:25.012Z,4.10
2023-05-22T07:39:54.650Z,4.00
2023-05-22T07:42:25.114Z,4.00
2023-05-22T07:44:55.779Z,4.00
2023-05-22T07:48:44.929Z,4.10
2023-05-22T07:51:25.577Z,3.90
2023-05-22T07:54:05.813Z,3.80
2023-05-22T07:56:53.235Z,4.10
2023-05-22T07:59:23.038Z,3.90
2023-05-22T08:05:11.419Z,3.70
2023-05-22T08:07:44.730Z,3.40
2023-05-22T08:10:23.553Z,3.90
2023-05-22T08:16:30.990Z,4.80
2023-05-22T08:19:04.883Z,4.10
2023-05-22T08:21:47.532Z,3.80
2023-05-22T08:27:09.726Z,3.80
2023-05-22T08:30:13.002Z,3.80
2023-05-22T08:32:54.763Z,3.90
2023-05-22T08:35:37.686Z,3.70
2023-05-22T08:38:18.443Z,3.70
2023-05-22T08:41:02.480Z,3.50
2023-05-22T08:43:47.671Z,4.00
2023-05-22T08:46:54.194Z,3.90
2023-05-22T08:53:04.079Z,3.90
2023-05-22T08:55:32.563Z,4.00
2023-05-22T08:58:07.002Z,4.20
2023-05-22T09:03:44.817Z,3.60
2023-05-22T09:07:17.369Z,3.50
2023-05-22T09:09:46.653Z,4.00
2023-05-22T09:20:41.669Z,4.30
2023-05-22T09:23:29.692Z,3.90
2023-05-22T09:26:00.163Z,3.90
2023-05-22T09:29:33.225Z,4.10
2023-05-22T09:32:04.566Z,4.10
2023-05-22T09:35:24.250Z,3.90
2023-05-22T09:42:11.578Z,4.30
2023-05-22T09:44:49.321Z,3.70
2023-05-22T09:48:00.242Z,3.80
2023-05-22T09:50:56.627Z,5.00
2023-05-22T09:53:36.065Z,3.80
2023-05-22T09:56:11.281Z,4.60
2023-05-22T09:58:50.584Z,3.90
2023-05-22T10:01:49.941Z,4.00
2023-05-22T10:08:00.802Z,4.10
2023-05-22T10:10:29.106Z,3.80
2023-05-22T10:13:17.048Z,4.00
2023-05-22T10:15:51.934Z,4.00
2023-05-22T10:18:22.137Z,4.50
2023-05-22T10:21:08.342Z,3.70
2023-05-22T10:23:37.072Z,3.70
2023-05-22T10:26:43.487Z,3.50
2023-05-22T10:29:44.499Z,4.00
2023-05-22T10:32:41.647Z,4.30
2023-05-22T10:36:18.438Z,3.80
2023-05-22T10:39:25.942Z,5.40
2023-05-22T10:41:57.062Z,3.60
2023-05-22T10:44:25.230Z,4.50
2023-05-22T10:46:53.668Z,3.90
2023-05-22T10:49:26.256Z,4.10
2023-05-22T10:52:02.453Z,4.20
2023-05-22T10:55:12.694Z,4.80
2023-05-22T10:58:05.113Z,4.90
2023-05-22T11:00:33.554Z,4.00
2023-05-22T11:03:17.950Z,4.00
2023-05-22T11:05:56.772Z,4.10
2023-05-22T11:08:45.021Z,3.70
2023-05-22T11:11:15.641Z,4.00
2023-05-22T11:14:04.497Z,4.50
2023-05-22T11:16:37.974Z,3.90
2023-05-22T11:19:22.545Z,3.70
2023-05-22T11:22:08.847Z,3.50
2023-05-22T11:24:41.834Z,4.50
2023-05-22T11:27:10.135Z,3.50
2023-05-22T11:29:43.584Z,3.70
2023-05-22T11:32:54.925Z,3.60
2023-05-22T11:35:23.202Z,3.70
2023-05-22T11:40:52.130Z,3.70
2023-05-22T11:43:33.155Z,3.60
2023-05-22T11:46:09.406Z,3.30
2023-05-22T11:48:44.752Z,3.70
2023-05-22T11:51:13.424Z,3.50
2023-05-22T11:53:41.851Z,4.10
2023-05-22T11:56:54.107Z,3.50
2023-05-22T11:59:33.257Z,3.60
2023-05-22T12:02:04.581Z,3.90
2023-05-22T12:04:35.171Z,3.50
2023-05-22T12:07:08.973Z,3.90
2023-05-22T12:09:40.825Z,3.40
2023-05-22T12:12:12.238Z,4.10
2023-05-22T12:14:51.883Z,4.00
2023-05-22T12:17:20.111Z,3.60
2023-05-22T12:19:48.420Z,3.60
2023-05-22T12:25:03.086Z,4.60
2023-05-22T12:27:56.750Z,4.70
2023-05-22T12:30:25.065Z,4.00
2023-05-22T12:32:53.438Z,4.00
2023-05-22T12:35:36.866Z,3.80
2023-05-22T12:38:07.473Z,3.60
2023-05-22T12:40:35.721Z,4.00
2023-05-22T12:43:05.186Z,3.90
2023-05-22T12:45:36.340Z,3.50
2023-05-22T12:48:15.429Z,3.60
2023-05-22T12:50:46.798Z,3.70
2023-05-22T12:53:20.460Z,3.60
2023-05-22T12:55:51.076Z,4.00
2023-05-22T12:58:39.450Z,4.00
2023-05-22T13:01:07.476Z,3.90
2023-05-22T13:03:42.932Z,3.70
2023-05-22T13:06:13.580Z,4.40
2023-05-22T13:08:41.700Z,3.80
2023-05-22T13:11:11.291Z,3.70
2023-05-22T13:13:42.123Z,3.40
2023-05-22T13:17:19.843Z,3.70
2023-05-22T13:19:29.690Z,3.60
2023-05-22T13:22:01.686Z,4.30
2023-05-22T13:28:07.959Z,3.50
2023-05-22T13:30:44.315Z,3.80
2023-05-22T13:34:03.627Z,3.60
2023-05-22T13:37:03.351Z,4.30
2023-05-22T13:39:41.167Z,3.50
2023-05-22T13:59:18.170Z,3.60
2023-05-22T14:02:55.405Z,2.60
2023-05-22T14:04:52.257Z,4.80
2023-05-22T14:07:47.229Z,4.00
2023-05-22T14:10:26.378Z,4.70
2023-05-22T14:13:00.177Z,4.10
2023-05-22T14:15:42.771Z,4.20
2023-05-22T14:18:36.829Z,3.90
2023-05-22T14:21:13.999Z,4.10
2023-05-22T14:23:43.814Z,3.60
2023-05-22T14:26:31.904Z,5.10
2023-05-22T14:29:16.301Z,4.70
2023-05-22T14:32:13.218Z,4.00
2023-05-22T14:35:12.638Z,3.90
2023-05-22T14:37:56.784Z,3.90
2023-05-22T14:40:39.990Z,4.10
2023-05-22T14:43:11.227Z,4.30
2023-05-22T14:45:42.209Z,3.60
2023-05-22T14:48:21.632Z,3.90
2023-05-22T14:51:52.522Z,3.60
2023-05-22T14:55:20.397Z,3.50
2023-05-22T14:58:06.174Z,3.70
2023-05-22T15:01:42.161Z,3.60
2023-05-22T15:05:35.488Z,3.60
2023-05-22T15:08:58.779Z,3.20
2023-05-22T15:14:35.442Z,3.20
2023-05-22T15:17:07.087Z,3.20
2023-05-22T15:23:19.461Z,3.30
2023-05-22T15:25:48.929Z,2.70
2023-05-22T15:28:20.130Z,3.00
2023-05-22T15:31:10.778Z,5.90
2023-05-22T15:33:39.774Z,3.50
2023-05-22T15:36:08.464Z,3.20
2023-05-22T15:39:08.401Z,2.90
2023-05-22T15:42:07.612Z,2.90
2023-05-22T15:44:36.081Z,2.80
2023-05-22T15:47:24.942Z,3.20
2023-05-22T15:50:17.489Z,2.90
2023-05-22T15:53:14.121Z,3.50
2023-05-22T15:55:43.409Z,3.50
2023-05-22T15:58:36.877Z,3.30
2023-05-22T16:01:18.747Z,3.80
2023-05-22T16:03:47.532Z,3.60
2023-05-22T16:06:19.232Z,3.40
2023-05-22T16:08:48.130Z,3.40
2023-05-22T16:11:16.605Z,2.90
2023-05-22T16:13:45.756Z,3.30
2023-05-22T16:16:16.469Z,3.50
2023-05-22T16:18:45.632Z,3.00
2023-05-22T16:21:23.400Z,2.90
2023-05-22T16:27:28.563Z,3.00
2023-05-22T16:29:56.969Z,3.70
2023-05-22T16:32:48.479Z,3.20
2023-05-22T16:35:48.374Z,3.10
2023-05-22T16:38:35.229Z,3.40
2023-05-22T16:41:34.819Z,3.80
2023-05-22T16:48:22.345Z,3.60
2023-05-22T16:50:50.992Z,5.30
2023-05-22T16:53:30.495Z,3.90
2023-05-22T16:56:28.905Z,3.20
2023-05-22T16:59:41.209Z,3.30
2023-05-22T17:02:53.263Z,3.50
2023-05-22T17:05:42.875Z,3.40
2023-05-22T17:08:29.370Z,3.50
2023-05-22T17:11:00.871Z,3.60
2023-05-22T17:13:40.342Z,3.40
2023-05-22T17:16:11.420Z,3.60
2023-05-22T17:18:41.666Z,3.80
2023-05-22T17:21:24.497Z,4.00
2023-05-22T17:23:53.314Z,4.10
2023-05-22T17:26:29.500Z,3.80
2023-05-22T17:28:58.043Z,3.90
2023-05-22T17:31:27.597Z,4.30
2023-05-22T17:34:16.433Z,4.20
2023-05-22T17:36:45.259Z,4.30
2023-05-22T17:41:42.858Z,4.40
2023-05-22T17:44:10.855Z,4.40
2023-05-22T17:46:44.413Z,4.10
2023-05-22T17:49:12.671Z,4.10
2023-05-22T17:51:45.813Z,4.20
2023-05-22T17:54:15.735Z,4.60
2023-05-22T17:56:43.738Z,4.20
2023-05-22T17:59:16.112Z,4.90
2023-05-22T18:01:51.085Z,4.70
2023-05-22T18:04:30.485Z,4.50
2023-05-22T18:06:58.687Z,5.10
2023-05-22T18:09:26.686Z,4.50
2023-05-22T18:11:54.779Z,4.70
2023-05-22T18:14:22.864Z,4.60
2023-05-22T18:16:50.838Z,4.70
2023-05-22T18:19:18.928Z,4.50
2023-05-22T18:21:46.924Z,4.80
2023-05-22T18:24:15.071Z,5.00
2023-05-22T18:26:43.091Z,5.10
2023-05-22T18:29:11.164Z,4.80
2023-05-22T18:31:39.227Z,5.10
2023-05-22T18:34:07.385Z,4.80
2023-05-22T18:36:35.497Z,4.70
2023-05-22T18:39:07.582Z,4.40
2023-05-22T18:41:50.785Z,4.30
2023-05-22T18:44:23.360Z,4.50
2023-05-22T18:47:12.696Z,4.30
2023-05-22T18:49:41.370Z,5.00
2023-05-22T18:52:09.848Z,5.20
2023-05-22T18:54:42.655Z,5.00
2023-05-22T18:57:12.473Z,5.10
2023-05-22T18:59:46.246Z,4.40
2023-05-22T19:02:17.061Z,4.90
2023-05-22T19:04:54.519Z,5.10
2023-05-22T19:07:43.313Z,4.80
2023-05-22T19:10:54.031Z,4.80
2023-05-22T19:14:07.927Z,5.40
2023-05-22T19:16:49.858Z,6.10
2023-05-22T19:19:44.053Z,6.30
2023-05-22T19:22:22.530Z,6.90
2023-05-22T19:24:59.346Z,6.60
2023-05-22T19:27:37.314Z,7.80
2023-05-22T19:30:08.253Z,7.80
2023-05-22T19:33:00.765Z,7.50
2023-05-22T19:35:32.154Z,7.30
2023-05-22T19:38:00.693Z,7.20
2023-05-22T19:40:29.033Z,7.60
2023-05-22T19:42:58.244Z,8.00
2023-05-22T19:45:27.347Z,7.10
2023-05-22T19:48:25.567Z,7.20
2023-05-22T19:51:00.471Z,7.70
2023-05-22T19:53:28.867Z,7.20
2023-05-22T19:55:57.445Z,6.60
2023-05-22T19:58:25.695Z,6.60
2023-05-22T20:00:55.292Z,7.60
2023-05-22T20:03:24.515Z,6.90
2023-05-22T20:05:55.776Z,7.30
2023-05-22T20:08:27.359Z,7.40
2023-05-22T20:10:56.271Z,6.90
2023-05-22T20:13:24.512Z,7.20
2023-05-22T20:15:53.575Z,6.60
2023-05-22T20:18:22.181Z,7.40
2023-05-22T20:20:50.232Z,7.00
2023-05-22T20:23:18.331Z,7.70
2023-05-22T20:25:46.714Z,8.10
2023-05-22T20:28:14.807Z,7.90
2023-05-22T20:30:42.905Z,7.30
2023-05-22T20:33:12.130Z,7.30
2023-05-22T20:35:40.863Z,7.90
2023-05-22T20:38:10.026Z,7.40
2023-05-22T20:40:38.190Z,7.00
2023-05-22T20:43:06.237Z,7.00
2023-05-22T20:45:34.657Z,6.80
2023-05-22T20:48:02.778Z,7.60
2023-05-22T20:50:32.741Z,6.40
2023-05-22T20:53:00.910Z,7.80
2023-05-22T20:55:28.950Z,8.00
2023-05-22T20:57:57.016Z,7.70
2023-05-22T21:00:25.295Z,8.00
2023-05-22T21:02:53.592Z,8.80
2023-05-22T21:05:22.091Z,10.20
2023-05-22T21:07:50.138Z,9.70
2023-05-22T21:10:18.197Z,10.00
2023-05-22T21:12:46.284Z,9.50
2023-05-22T21:15:14.300Z,10.30
2023-05-22T21:17:43.089Z,9.60
2023-05-22T21:20:11.489Z,9.80
2023-05-22T21:22:39.687Z,9.60
2023-05-22T21:25:08.635Z,9.30
2023-05-22T21:27:36.813Z,8.20
2023-05-22T21:30:05.320Z,8.60
2023-05-22T21:32:33.496Z,8.60
2023-05-22T21:35:01.657Z,8.40
2023-05-22T21:37:29.696Z,8.10
2023-05-22T21:39:57.792Z,18.80
2023-05-22T21:42:26.337Z,35.40
2023-05-22T21:44:54.386Z,24.30
2023-05-22T21:47:26.300Z,10.50
2023-05-22T21:49:54.558Z,8.80
2023-05-22T21:52:22.590Z,8.60
2023-05-22T21:54:50.861Z,7.50
2023-05-22T21:57:21.366Z,7.80
2023-05-22T21:59:51.063Z,7.70
2023-05-22T22:02:19.264Z,7.90
2023-05-22T22:04:47.436Z,8.60
2023-05-22T22:07:15.766Z,8.30
2023-05-22T22:09:44.121Z,8.50
2023-05-22T22:12:12.387Z,9.50
2023-05-22T22:14:44.874Z,9.50
2023-05-22T22:17:15.396Z,9.10
2023-05-22T22:19:44.990Z,9.60
2023-05-22T22:22:13.122Z,8.70
2023-05-22T22:24:45.817Z,7.80
2023-05-22T22:27:15.732Z,7.60
2023-05-22T22:29:44.105Z,7.70
2023-05-22T22:32:13.177Z,8.00
2023-05-22T22:34:45.382Z,7.20
2023-05-22T22:37:18.912Z,7.70
2023-05-22T22:39:47.454Z,7.80
2023-05-22T22:42:15.671Z,7.90
2023-05-22T22:44:44.121Z,8.60
2023-05-22T22:47:12.259Z,7.90
2023-05-22T22:49:40.351Z,8.40
2023-05-22T22:52:08.479Z,9.20
2023-05-22T22:54:36.528Z,8.70
2023-05-22T22:57:04.773Z,8.80
2023-05-22T22:59:33.732Z,8.30
2023-05-22T23:02:01.847Z,7.70
2023-05-22T23:04:30.018Z,7.10
2023-05-22T23:06:58.505Z,7.50
2023-05-22T23:09:26.604Z,8.00
2023-05-22T23:11:54.781Z,8.50
2023-05-22T23:14:24.944Z,7.70
2023-05-22T23:16:53.019Z,7.40
2023-05-22T23:19:21.536Z,8.20
2023-05-22T23:21:51.803Z,8.90
2023-05-22T23:24:20.075Z,7.60
2023-05-22T23:26:48.261Z,8.20
2023-05-22T23:29:16.339Z,8.40
2023-05-22T23:31:44.534Z,8.30
2023-05-22T23:34:12.824Z,7.40
2023-05-22T23:36:41.166Z,7.90
2023-05-22T23:39:09.298Z,8.60
2023-05-22T23:41:37.416Z,8.40
2023-05-22T23:44:05.361Z,7.80
2023-05-22T23:46:33.716Z,7.50
2023-05-22T23:49:02.093Z,7.50
2023-05-22T23:51:30.334Z,8.20
2023-05-22T23:54:01.255Z,8.10
2023-05-22T23:56:29.382Z,7.90
2023-05-22T23:58:57.598Z,7.70
